Time;durP1;ratioP1;P1;durP2;ratioP2;P2;SDS_P1;SDS_P2;PMS_P1;PMS_P2;Temp;Humidity;BMP_temperature;BMP_pressure;BME280_temperature;BME280_humidity;BME280_pressure;Samples;Min_cycle;Max_cycle;Signal;HPM_P1;HPM_P2
2021/08/11 00:21:05;;;;;;;17.98;10.78;;;;;;;14.72;87.02;100527.33;20741506;82;99632;-87
2021/08/11 00:51:06;;;;;;;10.30;5.73;;;;;;;15.18;88.82;100500.18;20925615;81;99825;-85
2021/08/11 01:21:18;;;;;;;10.00;5.20;;;;;;;15.78;91.16;100538.00;21040730;81;99688;-86
2021/08/11 01:51:20;;;;;;;9.63;4.90;;;;;;;15.97;90.43;100526.31;21131158;82;99517;-86
2021/08/11 02:21:21;;;;;;;9.03;4.72;;;;;;;15.95;90.84;100556.48;21198299;82;99678;-86
2021/08/11 02:51:26;;;;;;;11.80;5.05;;;;;;;15.91;90.39;100566.82;21214864;80;99509;-86
2021/08/11 03:21:27;;;;;;;9.35;5.10;;;;;;;15.55;90.65;100566.92;21197572;80;99770;-86
2021/08/11 03:51:28;;;;;;;9.53;5.33;;;;;;;15.27;90.17;100575.36;21208993;80;99618;-86
2021/08/11 04:21:28;;;;;;;10.23;5.72;;;;;;;14.97;90.91;100591.77;21195825;80;99347;-86
2021/08/11 04:51:29;;;;;;;11.73;6.78;;;;;;;14.78;91.37;100617.16;21085259;82;99454;-86
2021/08/11 05:21:32;;;;;;;13.13;6.58;;;;;;;14.83;93.15;100636.75;21045682;82;99635;-87
2021/08/11 05:51:37;;;;;;;9.33;5.13;;;;;;;15.12;94.24;100647.93;21020308;82;99684;-87
2021/08/11 06:21:36;;;;;;;8.03;3.80;;;;;;;17.04;92.78;100660.39;21013327;81;99605;-82
2021/08/11 06:51:38;;;;;;;8.50;4.12;;;;;;;19.08;85.84;100678.33;21043863;81;99818;-85
2021/08/11 07:21:41;;;;;;;7.03;3.93;;;;;;;19.01;81.03;100705.61;21078471;80;99608;-83
2021/08/11 07:51:42;;;;;;;6.35;3.60;;;;;;;19.04;81.44;100730.64;21055088;82;99492;-85
2021/08/11 08:21:43;;;;;;;6.73;3.27;;;;;;;19.83;78.68;100732.86;20993272;82;99941;-86
2021/08/11 08:51:49;;;;;;;5.67;3.05;;;;;;;21.07;75.41;100728.84;20729560;82;99455;-90
2021/08/11 09:22:01;;;;;;;6.53;2.95;;;;;;;23.74;68.79;100727.39;20566135;83;99369;-85
2021/08/11 09:52:03;;;;;;;5.78;2.47;;;;;;;25.50;63.35;100727.28;20961149;82;99683;-84
2021/08/11 10:22:14;;;;;;;4.47;1.95;;;;;;;26.87;56.79;100741.22;21198997;80;99424;-87
2021/08/11 10:52:16;;;;;;;4.47;1.95;;;;;;;26.64;52.17;100758.94;21150189;80;99426;-84
2021/08/11 11:22:41;;;;;;;4.97;2.70;;;;;;;28.44;46.70;100750.30;21151700;80;99746;-85
2021/08/11 11:52:56;;;;;;;5.17;2.10;;;;;;;26.87;49.03;100768.06;21073411;81;99546;-83
2021/08/11 12:23:00;;;;;;;4.65;2.50;;;;;;;27.28;46.43;100751.64;21049845;82;99620;-82
2021/08/11 12:53:01;;;;;;;4.87;2.47;;;;;;;27.80;45.30;100746.61;21090984;81;99599;-83
2021/08/11 13:23:07;;;;;;;5.83;2.98;;;;;;;27.61;44.22;100752.28;20624632;83;99352;-82
2021/08/11 13:53:07;;;;;;;3.67;2.10;;;;;;;27.99;43.12;100751.44;20882767;82;99321;-87
2021/08/11 14:23:08;;;;;;;4.25;2.10;;;;;;;27.63;42.17;100756.05;20916445;81;99592;-84
2021/08/11 14:53:09;;;;;;;5.40;2.22;;;;;;;27.10;42.54;100753.79;20918513;81;99648;-82
2021/08/11 15:23:12;;;;;;;5.97;2.15;;;;;;;26.49;42.60;100766.51;20900689;83;99282;-80
2021/08/11 15:53:13;;;;;;;4.92;2.35;;;;;;;25.69;41.68;100764.08;20945807;81;99267;-82
2021/08/11 16:23:14;;;;;;;3.80;2.17;;;;;;;25.00;42.62;100758.08;20991913;82;99283;-85
2021/08/11 16:53:15;;;;;;;4.00;2.00;;;;;;;24.34;43.20;100782.72;20974978;81;99696;-84
2021/08/11 17:23:16;;;;;;;5.35;2.47;;;;;;;23.40;44.06;100777.24;20989753;81;99558;-83
2021/08/11 17:53:17;;;;;;;4.55;2.12;;;;;;;22.62;46.23;100801.53;20994012;81;1808896;-82
2021/08/11 18:23:18;;;;;;;9.37;3.97;;;;;;;21.82;47.89;100820.20;21048792;82;100088;-81
2021/08/11 18:53:19;;;;;;;6.20;2.72;;;;;;;20.88;50.59;100832.47;21022444;81;99496;-81
2021/08/11 19:23:23;;;;;;;8.35;3.87;;;;;;;19.89;53.97;100871.58;21124488;80;99694;-84
2021/08/11 19:53:24;;;;;;;9.60;4.62;;;;;;;18.78;57.68;100896.62;21076464;81;99857;-84
2021/08/11 20:23:25;;;;;;;10.93;6.78;;;;;;;17.69;61.45;100913.89;21019586;80;99263;-83
2021/08/11 20:53:25;;;;;;;;;;;;;;;16.85;65.19;100944.55;21045359;81;99778;-84
2021/08/11 21:23:26;;;;;;;12.13;6.03;;;;;;;16.17;69.60;100966.09;21021312;80;85512;-84
2021/08/11 21:53:29;;;;;;;8.78;5.50;;;;;;;15.40;70.52;100957.09;21078504;80;99932;-85
2021/08/11 22:23:32;;;;;;;10.17;6.00;;;;;;;15.15;72.66;101000.64;21087495;81;99264;-84
2021/08/11 22:53:33;;;;;;;12.03;5.87;;;;;;;14.72;74.45;101015.56;21111447;80;100431;-85
2021/08/11 23:23:33;;;;;;;11.13;5.83;;;;;;;14.36;75.92;101022.12;21099030;81;100790;-85
2021/08/11 23:53:34;;;;;;;11.85;6.05;;;;;;;14.02;76.80;101015.95;21082404;81;99594;-85
